createdAt,value
2018-06-24T00:00:00.035Z,13.30
2018-06-24T00:02:29.129Z,13.20
2018-06-24T00:04:58.160Z,13.30
2018-06-24T00:07:27.182Z,13.30
2018-06-24T00:09:56.241Z,13.20
2018-06-24T00:12:25.272Z,13.30
2018-06-24T00:14:54.324Z,13.30
2018-06-24T00:17:23.373Z,13.20
2018-06-24T00:19:52.384Z,13.20
2018-06-24T00:22:21.470Z,13.20
2018-06-24T00:24:50.503Z,13.20
2018-06-24T00:27:19.508Z,13.20
2018-06-24T00:29:48.584Z,13.20
2018-06-24T00:32:17.636Z,13.10
2018-06-24T00:34:46.667Z,13.10
2018-06-24T00:37:15.755Z,13.20
2018-06-24T00:39:44.791Z,13.10
2018-06-24T00:42:13.836Z,13.20
2018-06-24T00:44:42.888Z,13.20
2018-06-24T00:49:40.597Z,13.20
2018-06-24T00:52:09.640Z,13.10
2018-06-24T00:54:38.704Z,13.10
2018-06-24T00:57:07.758Z,13.10
2018-06-24T00:59:48.132Z,13.10
2018-06-24T01:02:17.145Z,13.00
2018-06-24T01:04:46.189Z,13.10
2018-06-24T01:07:15.257Z,13.00
2018-06-24T01:09:44.301Z,13.00
2018-06-24T01:12:13.365Z,13.00
2018-06-24T01:14:42.408Z,13.00
2018-06-24T01:17:11.472Z,13.00
2018-06-24T01:19:40.509Z,13.00
2018-06-24T01:22:09.572Z,12.90
2018-06-24T01:24:38.614Z,12.90
2018-06-24T01:27:07.665Z,12.90
2018-06-24T01:29:36.705Z,12.90
2018-06-24T01:32:05.715Z,12.90
2018-06-24T01:34:34.760Z,12.90
2018-06-24T01:37:03.804Z,12.80
2018-06-24T01:39:32.869Z,12.80
2018-06-24T01:42:01.912Z,12.80
2018-06-24T01:44:30.971Z,12.80
2018-06-24T01:47:00.000Z,12.80
2018-06-24T01:49:29.110Z,12.80
2018-06-24T01:51:58.116Z,12.80
2018-06-24T01:54:27.554Z,12.70
2018-06-24T01:56:56.776Z,12.70
2018-06-24T01:59:25.856Z,12.70
2018-06-24T02:01:54.989Z,12.70
2018-06-24T02:04:24.089Z,12.70
2018-06-24T02:06:53.508Z,12.70
2018-06-24T02:09:22.549Z,12.70
2018-06-24T02:11:51.543Z,12.70
2018-06-24T02:14:20.593Z,12.70
2018-06-24T02:16:49.608Z,12.70
2018-06-24T02:19:18.657Z,12.70
2018-06-24T02:21:47.723Z,12.70
2018-06-24T02:24:16.732Z,12.70
2018-06-24T02:26:45.778Z,12.70
2018-06-24T02:29:14.788Z,12.60
2018-06-24T02:31:43.835Z,12.60
2018-06-24T02:34:12.884Z,12.60
2018-06-24T02:36:41.954Z,12.60
2018-06-24T02:39:11.362Z,12.60
2018-06-24T02:41:40.427Z,12.60
2018-06-24T02:44:09.505Z,12.60
2018-06-24T02:46:38.542Z,12.60
2018-06-24T02:49:07.644Z,12.50
2018-06-24T02:51:36.754Z,12.50
2018-06-24T02:54:05.839Z,12.50
2018-06-24T02:56:34.872Z,12.60
2018-06-24T02:59:03.941Z,12.50
2018-06-24T03:01:32.993Z,12.50
2018-06-24T03:04:02.045Z,12.50
2018-06-24T03:06:31.079Z,12.50
2018-06-24T03:09:00.108Z,12.50
2018-06-24T03:11:29.168Z,12.50
2018-06-24T03:13:58.220Z,12.50
2018-06-24T03:16:27.302Z,12.50
2018-06-24T03:18:56.694Z,12.50
2018-06-24T03:21:25.715Z,12.50
2018-06-24T03:23:54.726Z,12.50
2018-06-24T03:26:23.773Z,12.50
2018-06-24T03:28:52.832Z,12.50
2018-06-24T03:31:22.071Z,12.50
2018-06-24T03:33:51.086Z,12.50
2018-06-24T03:36:20.103Z,12.60
2018-06-24T03:38:49.136Z,12.60
2018-06-24T03:41:18.172Z,12.60
2018-06-24T03:43:47.212Z,12.60
2018-06-24T03:46:16.262Z,12.60
2018-06-24T03:48:45.271Z,12.60
2018-06-24T03:51:14.317Z,12.60
2018-06-24T03:53:43.392Z,12.60
2018-06-24T03:56:12.402Z,12.60
2018-06-24T03:58:41.442Z,12.60
2018-06-24T04:01:10.487Z,12.70
2018-06-24T04:03:39.539Z,12.70
2018-06-24T04:06:08.568Z,12.70
2018-06-24T04:08:37.636Z,12.70
2018-06-24T04:11:06.712Z,12.70
2018-06-24T04:13:35.733Z,12.70
2018-06-24T04:16:07.012Z,12.70
2018-06-24T04:18:44.137Z,12.70
2018-06-24T04:21:15.036Z,12.70
2018-06-24T04:23:45.020Z,12.70
2018-06-24T04:26:14.039Z,12.70
2018-06-24T04:28:43.067Z,12.80
2018-06-24T04:31:12.328Z,12.80
2018-06-24T04:33:41.480Z,12.80
2018-06-24T04:36:10.544Z,12.90
2018-06-24T04:38:39.586Z,12.90
2018-06-24T04:41:08.673Z,12.90
2018-06-24T04:43:37.684Z,12.90
2018-06-24T04:46:06.725Z,12.90
2018-06-24T04:48:35.775Z,13.00
2018-06-24T04:51:04.908Z,13.00
2018-06-24T04:53:33.961Z,13.00
2018-06-24T04:56:02.972Z,13.00
2018-06-24T04:58:32.025Z,13.00
2018-06-24T05:01:01.048Z,13.00
2018-06-24T05:03:30.104Z,13.10
2018-06-24T05:05:59.788Z,13.10
2018-06-24T05:08:28.935Z,13.10
2018-06-24T05:10:57.972Z,13.20
2018-06-24T05:13:27.044Z,13.30
2018-06-24T05:15:56.049Z,13.30
2018-06-24T05:18:25.098Z,13.30
2018-06-24T05:20:54.123Z,13.30
2018-06-24T05:23:23.164Z,13.30
2018-06-24T05:25:52.195Z,13.40
2018-06-24T05:28:21.276Z,13.40
2018-06-24T05:30:50.341Z,13.40
2018-06-24T05:33:19.445Z,13.40
2018-06-24T05:35:48.511Z,13.40
2018-06-24T05:38:17.593Z,13.30
2018-06-24T05:40:46.740Z,13.30
2018-06-24T05:43:15.784Z,13.30
2018-06-24T05:45:44.884Z,13.30
2018-06-24T05:48:13.943Z,13.30
2018-06-24T05:50:43.559Z,13.30
2018-06-24T05:53:12.591Z,13.20
2018-06-24T05:55:41.640Z,13.30
2018-06-24T05:58:10.710Z,13.30
2018-06-24T06:00:39.728Z,13.30
2018-06-24T06:03:08.873Z,13.20
2018-06-24T06:05:37.910Z,13.20
2018-06-24T06:08:06.986Z,13.20
2018-06-24T06:10:36.014Z,13.20
2018-06-24T06:13:05.399Z,13.20
2018-06-24T06:15:34.522Z,13.20
2018-06-24T06:18:03.629Z,13.20
2018-06-24T06:23:01.360Z,13.10
2018-06-24T06:25:30.404Z,13.20
2018-06-24T06:27:59.464Z,13.20
2018-06-24T06:30:28.524Z,13.20
2018-06-24T06:32:57.550Z,13.30
2018-06-24T06:35:26.605Z,13.40
2018-06-24T06:37:55.688Z,13.40
2018-06-24T06:40:24.807Z,13.50
2018-06-24T06:42:53.882Z,13.60
2018-06-24T06:45:23.103Z,13.70
2018-06-24T06:47:52.022Z,13.70
2018-06-24T06:50:21.143Z,13.70
2018-06-24T06:52:50.207Z,13.80
2018-06-24T06:55:19.305Z,13.90
2018-06-24T06:57:48.708Z,14.00
2018-06-24T07:00:19.150Z,14.10
2018-06-24T07:02:48.400Z,14.20
2018-06-24T07:05:17.573Z,14.30
2018-06-24T07:07:46.628Z,14.40
2018-06-24T07:10:15.679Z,14.40
2018-06-24T07:12:44.704Z,14.40
2018-06-24T07:15:13.776Z,14.40
2018-06-24T07:17:42.833Z,14.40
2018-06-24T07:22:40.540Z,14.40
2018-06-24T07:25:09.607Z,14.40
2018-06-24T07:27:38.756Z,14.40
2018-06-24T07:30:07.872Z,14.50
2018-06-24T07:32:37.024Z,14.60
2018-06-24T07:35:06.142Z,14.60
2018-06-24T07:37:35.507Z,14.60
2018-06-24T07:40:04.671Z,14.60
2018-06-24T07:42:33.720Z,14.50
2018-06-24T07:45:02.872Z,14.60
2018-06-24T07:47:31.982Z,14.60
2018-06-24T07:52:30.544Z,14.70
2018-06-24T07:54:59.963Z,14.70
2018-06-24T07:57:29.739Z,14.80
2018-06-24T07:59:58.800Z,14.80
2018-06-24T08:02:27.847Z,14.80
2018-06-24T08:04:57.164Z,14.80
2018-06-24T08:07:26.255Z,14.90
2018-06-24T08:09:55.457Z,14.90
2018-06-24T08:12:24.542Z,15.00
2018-06-24T08:14:53.635Z,15.10
2018-06-24T08:17:22.716Z,15.30
2018-06-24T08:19:51.846Z,15.50
2018-06-24T08:22:21.033Z,15.60
2018-06-24T08:24:50.293Z,15.60
2018-06-24T08:27:19.367Z,15.60
2018-06-24T08:29:48.463Z,15.70
2018-06-24T08:32:17.566Z,15.70
2018-06-24T08:34:46.707Z,15.70
2018-06-24T08:37:16.017Z,15.70
2018-06-24T08:39:45.216Z,15.70
2018-06-24T08:42:14.456Z,15.70
2018-06-24T08:44:43.561Z,15.60
2018-06-24T08:47:12.874Z,15.60
2018-06-24T08:49:42.137Z,15.60
2018-06-24T08:52:11.392Z,15.60
2018-06-24T08:54:40.581Z,15.70
2018-06-24T08:57:09.797Z,15.80
2018-06-24T08:59:38.903Z,15.90
2018-06-24T09:02:08.141Z,16.00
2018-06-24T09:04:37.281Z,15.90
2018-06-24T09:07:06.440Z,15.90
2018-06-24T09:09:35.679Z,15.80
2018-06-24T09:12:04.886Z,15.80
2018-06-24T09:14:34.036Z,15.80
2018-06-24T09:17:03.558Z,15.70
2018-06-24T09:19:32.617Z,15.80
2018-06-24T09:22:01.782Z,16.00
2018-06-24T09:24:30.800Z,16.20
2018-06-24T09:26:59.906Z,16.40
2018-06-24T09:29:29.135Z,16.40
2018-06-24T09:31:58.221Z,16.40
2018-06-24T09:34:27.385Z,16.30
2018-06-24T09:36:56.536Z,16.30
2018-06-24T09:39:26.231Z,16.30
2018-06-24T09:41:55.348Z,16.30
2018-06-24T09:44:24.583Z,16.30
2018-06-24T09:46:53.656Z,16.30
2018-06-24T09:49:22.743Z,16.40
2018-06-24T09:51:51.839Z,16.40
2018-06-24T09:54:20.889Z,16.30
2018-06-24T09:56:49.927Z,16.20
2018-06-24T09:59:18.988Z,16.00
2018-06-24T10:01:48.032Z,15.80
2018-06-24T10:04:17.081Z,15.60
2018-06-24T10:06:46.346Z,15.50
2018-06-24T10:11:44.184Z,15.60
2018-06-24T10:14:13.312Z,15.70
2018-06-24T10:16:42.368Z,15.80
2018-06-24T10:19:11.457Z,16.00
2018-06-24T10:21:40.530Z,16.00
2018-06-24T10:24:09.644Z,16.20
2018-06-24T10:26:38.766Z,16.30
2018-06-24T10:29:07.877Z,16.40
2018-06-24T10:31:36.979Z,16.50
2018-06-24T10:34:06.020Z,16.50
2018-06-24T10:36:35.089Z,16.60
2018-06-24T10:39:06.792Z,16.40
2018-06-24T10:41:35.888Z,16.20
2018-06-24T10:44:04.968Z,16.10
2018-06-24T10:46:34.091Z,16.10
2018-06-24T10:49:03.160Z,16.20
2018-06-24T10:51:32.264Z,16.20
2018-06-24T10:54:01.777Z,16.30
2018-06-24T10:56:30.827Z,16.40
2018-06-24T11:01:28.548Z,16.40
2018-06-24T11:03:57.601Z,16.60
2018-06-24T11:06:26.688Z,16.50
2018-06-24T11:08:55.753Z,16.60
2018-06-24T11:11:24.880Z,16.60
2018-06-24T11:13:53.920Z,16.80
2018-06-24T11:16:23.000Z,16.80
2018-06-24T11:18:52.063Z,16.80
2018-06-24T11:21:21.144Z,16.80
2018-06-24T11:23:51.139Z,16.80
2018-06-24T11:26:20.261Z,16.70
2018-06-24T11:28:49.493Z,16.60
2018-06-24T11:31:18.582Z,16.40
2018-06-24T11:33:48.285Z,16.30
2018-06-24T11:36:18.193Z,16.10
2018-06-24T11:38:47.260Z,16.00
2018-06-24T11:41:16.304Z,15.90
2018-06-24T11:43:45.477Z,15.90
2018-06-24T11:46:14.666Z,16.10
2018-06-24T11:48:43.910Z,16.00
2018-06-24T11:51:13.102Z,16.10
2018-06-24T11:53:42.331Z,16.00
2018-06-24T11:56:11.665Z,15.90
2018-06-24T11:58:41.185Z,15.80
2018-06-24T12:03:39.635Z,15.80
2018-06-24T12:06:09.636Z,15.80
2018-06-24T12:08:38.847Z,15.80
2018-06-24T12:11:08.042Z,15.80
2018-06-24T12:13:37.401Z,15.80
2018-06-24T12:16:06.470Z,15.90
2018-06-24T12:18:35.604Z,16.10
2018-06-24T12:21:04.778Z,16.30
2018-06-24T12:23:34.031Z,16.40
2018-06-24T12:26:03.143Z,16.50
2018-06-24T12:28:32.356Z,16.50
2018-06-24T12:31:01.449Z,16.30
2018-06-24T12:33:30.503Z,16.20
2018-06-24T12:35:59.636Z,16.00
2018-06-24T12:38:28.718Z,15.90
2018-06-24T12:40:58.691Z,15.80
2018-06-24T12:43:27.809Z,15.70
2018-06-24T12:45:56.852Z,15.60
2018-06-24T12:48:25.985Z,15.60
2018-06-24T12:50:55.064Z,15.50
2018-06-24T12:53:24.112Z,15.60
2018-06-24T12:55:53.173Z,15.60
2018-06-24T12:58:22.394Z,15.60
2018-06-24T13:00:51.852Z,15.60
2018-06-24T13:03:20.436Z,15.80
2018-06-24T13:05:49.533Z,15.90
2018-06-24T13:10:52.937Z,16.00
2018-06-24T13:13:22.010Z,16.00
2018-06-24T13:15:51.057Z,16.20
2018-06-24T13:18:20.114Z,16.30
2018-06-24T13:20:49.147Z,16.50
2018-06-24T13:23:18.272Z,16.60
2018-06-24T13:25:47.336Z,16.60
2018-06-24T13:28:16.387Z,16.70
2018-06-24T13:30:45.489Z,16.70
2018-06-24T13:33:14.512Z,16.60
2018-06-24T13:35:43.561Z,16.50
2018-06-24T13:38:12.621Z,16.40
2018-06-24T13:40:41.658Z,16.30
2018-06-24T13:43:10.712Z,16.30
2018-06-24T13:45:39.812Z,16.30
2018-06-24T13:48:09.407Z,16.20
2018-06-24T13:50:38.453Z,16.20
2018-06-24T13:53:07.575Z,16.10
2018-06-24T13:55:36.638Z,16.00
2018-06-24T13:58:06.230Z,16.00
2018-06-24T14:00:35.269Z,16.00
2018-06-24T14:03:04.341Z,16.00
2018-06-24T14:05:34.166Z,16.10
2018-06-24T14:08:03.275Z,16.10
2018-06-24T14:10:32.357Z,16.20
2018-06-24T14:13:01.483Z,16.40
2018-06-24T14:15:30.554Z,16.50
2018-06-24T14:17:59.678Z,16.60
2018-06-24T14:20:29.018Z,16.70
2018-06-24T14:22:58.069Z,16.70
2018-06-24T14:25:27.125Z,16.60
2018-06-24T14:27:56.146Z,16.50
2018-06-24T14:30:25.189Z,16.40
2018-06-24T14:32:54.406Z,16.20
2018-06-24T14:35:23.472Z,16.00
2018-06-24T14:37:52.490Z,15.90
2018-06-24T14:40:21.585Z,15.80
2018-06-24T14:42:50.702Z,15.60
2018-06-24T14:47:48.626Z,15.70
2018-06-24T14:50:17.751Z,15.80
2018-06-24T14:52:47.062Z,15.90
2018-06-24T14:55:16.211Z,16.00
2018-06-24T14:57:45.309Z,16.00
2018-06-24T15:00:14.839Z,16.00
2018-06-24T15:02:43.896Z,16.00
2018-06-24T15:05:13.444Z,16.00
2018-06-24T15:07:42.977Z,16.00
2018-06-24T15:10:12.098Z,16.00
2018-06-24T15:12:41.344Z,15.90
2018-06-24T15:15:10.490Z,15.90
2018-06-24T15:17:39.562Z,15.80
2018-06-24T15:20:08.660Z,15.80
2018-06-24T15:22:37.928Z,15.80
2018-06-24T15:25:07.110Z,15.70
2018-06-24T15:27:36.206Z,15.60
2018-06-24T15:30:05.693Z,15.60
2018-06-24T15:32:34.805Z,15.50
2018-06-24T15:35:04.044Z,15.40
2018-06-24T15:37:33.112Z,15.40
2018-06-24T15:40:02.216Z,15.40
2018-06-24T15:42:31.280Z,15.30
2018-06-24T15:45:00.492Z,15.30
2018-06-24T15:47:29.691Z,15.20
2018-06-24T15:49:58.974Z,15.20
2018-06-24T15:52:28.196Z,15.20
2018-06-24T15:54:57.462Z,15.20
2018-06-24T15:57:26.725Z,15.10
2018-06-24T15:59:55.939Z,15.10
2018-06-24T16:02:25.298Z,15.10
2018-06-24T16:04:55.129Z,15.10
2018-06-24T16:07:24.261Z,15.00
2018-06-24T16:09:53.531Z,15.10
2018-06-24T16:12:22.744Z,15.10
2018-06-24T16:14:51.944Z,15.20
2018-06-24T16:17:21.079Z,15.20
2018-06-24T16:19:50.300Z,15.20
2018-06-24T16:22:19.396Z,15.30
2018-06-24T16:24:48.461Z,15.30
2018-06-24T16:27:17.494Z,15.40
2018-06-24T16:29:46.848Z,15.50
2018-06-24T16:32:15.977Z,15.50
2018-06-24T16:34:45.033Z,15.50
2018-06-24T16:37:14.343Z,15.60
2018-06-24T16:39:43.435Z,15.60
2018-06-24T16:42:12.488Z,15.70
2018-06-24T16:44:41.576Z,15.70
2018-06-24T16:47:10.652Z,15.80
2018-06-24T16:49:39.819Z,15.80
2018-06-24T16:52:08.811Z,15.80
2018-06-24T16:54:37.899Z,15.80
2018-06-24T16:57:06.997Z,15.70
2018-06-24T16:59:36.151Z,15.70
2018-06-24T17:02:05.969Z,15.60
2018-06-24T17:04:35.123Z,15.60
2018-06-24T17:07:04.439Z,15.70
2018-06-24T17:09:34.147Z,15.70
2018-06-24T17:12:03.219Z,15.80
2018-06-24T17:14:32.433Z,15.70
2018-06-24T17:17:01.512Z,15.80
2018-06-24T17:19:30.699Z,15.70
2018-06-24T17:21:59.895Z,15.70
2018-06-24T17:24:29.030Z,15.70
2018-06-24T17:26:58.302Z,15.70
2018-06-24T17:29:27.527Z,15.70
2018-06-24T17:31:56.768Z,15.70
2018-06-24T17:34:25.845Z,15.70
2018-06-24T17:36:55.037Z,15.70
2018-06-24T17:39:24.213Z,15.70
2018-06-24T17:41:53.260Z,15.70
2018-06-24T17:44:22.335Z,15.80
2018-06-24T17:46:51.545Z,15.80
2018-06-24T17:49:20.578Z,15.80
2018-06-24T17:51:49.632Z,15.80
2018-06-24T17:54:19.060Z,15.80
2018-06-24T17:56:48.265Z,15.70
2018-06-24T17:59:17.339Z,15.70
2018-06-24T18:01:46.695Z,15.60
2018-06-24T18:04:16.512Z,15.60
2018-06-24T18:06:45.957Z,15.60
2018-06-24T18:09:15.053Z,15.50
2018-06-24T18:11:44.153Z,15.50
2018-06-24T18:14:13.319Z,15.40
2018-06-24T18:16:42.452Z,15.30
2018-06-24T18:19:11.522Z,15.30
2018-06-24T18:21:40.679Z,15.20
2018-06-24T18:24:09.861Z,15.20
2018-06-24T18:26:39.107Z,15.10
2018-06-24T18:29:08.373Z,15.10
2018-06-24T18:31:37.572Z,15.00
2018-06-24T18:34:06.884Z,15.00
2018-06-24T18:36:36.218Z,14.90
2018-06-24T18:39:08.002Z,14.90
2018-06-24T18:41:37.384Z,14.80
2018-06-24T18:44:06.484Z,14.70
2018-06-24T18:46:35.934Z,14.60
2018-06-24T18:49:05.344Z,14.50
2018-06-24T18:51:34.462Z,14.40
2018-06-24T18:54:03.616Z,14.40
2018-06-24T18:56:32.700Z,14.30
2018-06-24T18:59:01.761Z,14.20
2018-06-24T19:01:30.909Z,14.10
2018-06-24T19:04:00.310Z,14.00
2018-06-24T19:06:30.465Z,14.00
2018-06-24T19:08:59.747Z,13.90
2018-06-24T19:11:28.882Z,13.90
2018-06-24T19:13:58.049Z,13.80
2018-06-24T19:16:27.410Z,13.80
2018-06-24T19:18:57.050Z,13.70
2018-06-24T19:21:26.315Z,13.50
2018-06-24T19:23:55.417Z,13.50
2018-06-24T19:26:24.524Z,13.40
2018-06-24T19:28:53.736Z,13.30
2018-06-24T19:31:23.538Z,13.20
2018-06-24T19:33:53.735Z,13.10
2018-06-24T19:36:23.426Z,13.00
2018-06-24T19:38:52.718Z,12.90
2018-06-24T19:41:22.549Z,12.90
2018-06-24T19:43:51.777Z,12.80
2018-06-24T19:46:20.924Z,12.80
2018-06-24T19:48:50.144Z,12.80
2018-06-24T19:51:19.430Z,12.70
2018-06-24T19:53:48.520Z,12.60
2018-06-24T19:56:17.736Z,12.60
2018-06-24T19:58:46.755Z,12.60
2018-06-24T20:01:16.077Z,12.50
2018-06-24T20:03:45.972Z,12.50
2018-06-24T20:06:15.366Z,12.50
2018-06-24T20:08:44.484Z,12.40
2018-06-24T20:11:13.907Z,12.30
2018-06-24T20:13:43.108Z,12.20
2018-06-24T20:16:12.323Z,12.20
2018-06-24T20:18:41.544Z,12.10
2018-06-24T20:21:10.750Z,12.10
2018-06-24T20:23:39.926Z,12.00
2018-06-24T20:26:09.376Z,12.00
2018-06-24T20:28:38.500Z,11.90
2018-06-24T20:31:07.920Z,11.90
2018-06-24T20:33:37.235Z,11.80
2018-06-24T20:36:06.394Z,11.80
2018-06-24T20:38:35.740Z,11.70
2018-06-24T20:43:33.943Z,11.50
2018-06-24T20:46:03.235Z,11.50
2018-06-24T20:48:32.368Z,11.40
2018-06-24T20:51:01.610Z,11.30
2018-06-24T20:53:30.709Z,11.30
2018-06-24T20:56:00.019Z,11.30
2018-06-24T20:58:29.072Z,11.20
2018-06-24T21:00:58.127Z,11.20
2018-06-24T21:03:27.277Z,11.20
2018-06-24T21:05:56.862Z,11.10
2018-06-24T21:08:25.898Z,11.10
2018-06-24T21:10:54.954Z,11.10
2018-06-24T21:13:24.013Z,11.10
2018-06-24T21:15:53.103Z,11.00
2018-06-24T21:18:22.152Z,11.00
2018-06-24T21:20:51.244Z,11.00
2018-06-24T21:23:20.293Z,10.90
2018-06-24T21:25:49.408Z,10.90
2018-06-24T21:28:18.506Z,10.90
2018-06-24T21:30:47.572Z,10.80
2018-06-24T21:33:16.593Z,10.70
2018-06-24T21:35:45.643Z,10.70
2018-06-24T21:38:14.697Z,10.60
2018-06-24T21:40:43.804Z,10.60
2018-06-24T21:43:12.857Z,10.50
2018-06-24T21:45:41.887Z,10.50
2018-06-24T21:48:10.969Z,10.50
2018-06-24T21:50:40.268Z,10.40
2018-06-24T21:53:09.333Z,10.40
2018-06-24T21:55:38.436Z,10.30
2018-06-24T21:58:07.724Z,10.30
2018-06-24T22:00:36.791Z,10.20
2018-06-24T22:03:05.996Z,10.10
2018-06-24T22:05:35.360Z,10.10
2018-06-24T22:08:04.430Z,10.10
2018-06-24T22:13:02.111Z,10.10
2018-06-24T22:15:31.197Z,10.10
2018-06-24T22:18:00.262Z,10.00
2018-06-24T22:20:29.287Z,10.00
2018-06-24T22:22:58.332Z,10.00
2018-06-24T22:25:27.392Z,9.90
2018-06-24T22:27:56.470Z,9.90
2018-06-24T22:30:25.493Z,9.90
2018-06-24T22:32:54.533Z,9.80
2018-06-24T22:35:23.579Z,9.80
2018-06-24T22:37:52.604Z,9.80
2018-06-24T22:40:21.653Z,9.80
2018-06-24T22:42:50.708Z,9.80
2018-06-24T22:45:19.707Z,9.80
2018-06-24T22:47:48.755Z,9.70
2018-06-24T22:50:17.756Z,9.70
2018-06-24T22:52:46.804Z,9.70
2018-06-24T22:55:15.847Z,9.70
2018-06-24T22:57:44.926Z,9.70
2018-06-24T23:00:18.296Z,9.60
2018-06-24T23:02:47.321Z,9.60
2018-06-24T23:05:16.352Z,9.60
2018-06-24T23:07:45.896Z,9.50
2018-06-24T23:10:15.156Z,9.50
2018-06-24T23:12:44.288Z,9.50
2018-06-24T23:15:13.333Z,9.50
2018-06-24T23:17:42.389Z,9.50
2018-06-24T23:20:11.456Z,9.40
2018-06-24T23:22:40.502Z,9.40
2018-06-24T23:25:09.543Z,9.40
2018-06-24T23:27:38.579Z,9.40
2018-06-24T23:30:07.956Z,9.40
2018-06-24T23:35:05.864Z,9.40
2018-06-24T23:37:34.901Z,9.40
2018-06-24T23:40:04.306Z,9.40
2018-06-24T23:42:33.385Z,9.30
2018-06-24T23:45:02.421Z,9.40
2018-06-24T23:47:31.454Z,9.40
2018-06-24T23:50:00.492Z,9.40
2018-06-24T23:52:29.525Z,9.50
2018-06-24T23:54:58.611Z,9.50
2018-06-24T23:57:27.655Z,9.50
2018-06-24T23:59:56.709Z,9.60
